Laughlin AFB, Texas
Current Conditions -  °F | °C
As of 6:58 AM on Wednesday 22 Oct 2014 (Local Time) from KDLF Reporting Station
Overcast Overcast  
Wind Chill: 67°   Ceiling: 6500
Heat Index: 67°   Visibility: 10mi
Dew Point: 56°   Wind: 8mph
Humidity: 68%   Direction: 110°ESE
Pressure: 30.04"   Gusts: NA
Location:  29.36°N, 100.78°W
Report Text: KDLF 221158Z AUTO 11007KT 10SM OVC065 20/14 A3004 RMK AO2 SLP162 60000 T01970136 10216 20197 52009 $
Loading
Personal Weather Stations






























Interactive Weather Map
Tropical Storm Tracking
New forecast layout! Learn more

10-Day Weather Forecast

Advertisements
Track Severe Weather on mobile